createdAt,value
2018-12-01T00:00:45.690Z,62.40
2018-12-01T00:03:13.247Z,62.30
2018-12-01T00:10:36.003Z,62.20
2018-12-01T00:13:03.703Z,62.10
2018-12-01T00:15:31.349Z,62.10
2018-12-01T00:20:27.861Z,62.10
2018-12-01T00:25:22.935Z,62.00
2018-12-01T00:27:50.525Z,62.00
2018-12-01T00:30:18.763Z,62.00
2018-12-01T00:32:47.387Z,62.20
2018-12-01T00:35:15.079Z,62.20
2018-12-01T00:37:42.713Z,62.20
2018-12-01T00:45:08.618Z,62.20
2018-12-01T00:47:36.175Z,62.20
2018-12-01T00:50:07.267Z,62.00
2018-12-01T00:57:29.795Z,62.20
2018-12-01T00:59:57.321Z,62.20
2018-12-01T01:02:30.503Z,62.00
2018-12-01T01:04:58.017Z,62.10
2018-12-01T01:07:25.585Z,62.10
2018-12-01T01:09:53.132Z,62.20
2018-12-01T01:12:20.672Z,62.20
2018-12-01T01:14:48.215Z,62.30
2018-12-01T01:17:15.852Z,62.20
2018-12-01T01:19:43.897Z,62.20
2018-12-01T01:22:11.513Z,62.20
2018-12-01T01:27:06.630Z,62.20
2018-12-01T01:29:34.208Z,62.20
2018-12-01T01:32:01.897Z,62.20
2018-12-01T01:34:29.438Z,62.30
2018-12-01T01:36:57.048Z,62.30
2018-12-01T01:39:24.692Z,62.20
2018-12-01T01:41:52.262Z,62.20
2018-12-01T01:44:20.002Z,62.20
2018-12-01T01:46:47.694Z,62.20
2018-12-01T01:49:15.256Z,62.30
2018-12-01T01:51:42.855Z,62.30
2018-12-01T01:54:10.935Z,62.30
2018-12-01T01:59:06.027Z,62.30
2018-12-01T02:01:33.643Z,62.40
2018-12-01T02:04:01.326Z,62.30
2018-12-01T02:06:28.900Z,62.30
2018-12-01T02:08:56.468Z,62.40
2018-12-01T02:13:51.559Z,62.60
2018-12-01T02:18:46.640Z,62.50
2018-12-01T02:21:14.221Z,62.60
2018-12-01T02:23:41.765Z,62.60
2018-12-01T02:26:09.327Z,62.60
2018-12-01T02:28:36.905Z,62.50
2018-12-01T02:31:04.685Z,62.60
2018-12-01T02:38:27.222Z,62.40
2018-12-01T02:40:54.784Z,62.50
2018-12-01T02:43:22.320Z,62.50
2018-12-01T02:46:01.196Z,62.60
2018-12-01T02:48:28.836Z,62.50
2018-12-01T02:50:56.338Z,62.50
2018-12-01T02:53:23.988Z,62.50
2018-12-01T02:55:51.594Z,62.50
2018-12-01T02:58:19.214Z,62.50
2018-12-01T03:00:46.819Z,62.70
2018-12-01T03:05:41.890Z,62.50
2018-12-01T03:08:09.429Z,62.50
2018-12-01T03:13:04.447Z,62.50
2018-12-01T03:17:59.534Z,62.50
2018-12-01T03:20:27.142Z,62.60
2018-12-01T03:22:54.725Z,62.60
2018-12-01T03:27:51.754Z,62.50
2018-12-01T03:37:46.252Z,62.50
2018-12-01T03:40:14.100Z,62.50
2018-12-01T03:42:41.717Z,62.40
2018-12-01T03:45:12.526Z,62.50
2018-12-01T03:47:40.119Z,62.40
2018-12-01T03:50:09.239Z,62.50
2018-12-01T03:52:36.797Z,62.50
2018-12-01T03:57:32.399Z,62.40
2018-12-01T04:00:00.363Z,62.30
2018-12-01T04:02:27.923Z,62.20
2018-12-01T04:04:55.487Z,62.20
2018-12-01T04:07:23.011Z,62.00
2018-12-01T04:09:50.540Z,62.10
2018-12-01T04:12:18.444Z,62.10
2018-12-01T04:14:46.019Z,62.10
2018-12-01T04:17:13.599Z,62.10
2018-12-01T04:22:08.643Z,62.20
2018-12-01T04:24:36.689Z,62.20
2018-12-01T04:27:04.439Z,62.30
2018-12-01T04:29:31.987Z,62.40
2018-12-01T04:31:59.567Z,62.50
2018-12-01T04:36:54.676Z,62.70
2018-12-01T04:39:22.248Z,62.80
2018-12-01T04:41:49.910Z,62.80
2018-12-01T04:44:17.525Z,62.80
2018-12-01T04:46:45.197Z,62.90
2018-12-01T04:51:40.260Z,62.90
2018-12-01T04:54:07.823Z,63.00
2018-12-01T04:56:35.469Z,63.00
2018-12-01T04:59:03.044Z,63.00
2018-12-01T05:01:30.677Z,62.80
2018-12-01T05:06:25.846Z,62.70
2018-12-01T05:08:53.362Z,62.70
2018-12-01T05:11:20.953Z,62.70
2018-12-01T05:13:48.565Z,62.70
2018-12-01T05:16:16.162Z,62.70
2018-12-01T05:18:43.730Z,62.60
2018-12-01T05:21:11.370Z,62.60
2018-12-01T05:23:38.895Z,62.50
2018-12-01T05:28:34.026Z,62.50
2018-12-01T05:31:01.555Z,62.50
2018-12-01T05:33:29.124Z,62.40
2018-12-01T05:35:56.708Z,62.30
2018-12-01T05:40:51.690Z,62.10
2018-12-01T05:45:46.762Z,62.00
2018-12-01T05:50:41.814Z,62.00
2018-12-01T05:53:09.416Z,62.10
2018-12-01T05:55:36.968Z,62.20
2018-12-01T05:58:04.523Z,62.20
2018-12-01T06:05:27.114Z,62.20
2018-12-01T06:10:22.378Z,62.10
2018-12-01T06:12:51.023Z,62.20
2018-12-01T06:20:17.192Z,62.00
2018-12-01T06:22:44.745Z,62.00
2018-12-01T06:27:40.488Z,62.00
2018-12-01T06:32:59.356Z,61.80
2018-12-01T06:35:26.900Z,61.90
2018-12-01T06:37:55.914Z,61.90
2018-12-01T06:40:23.444Z,61.90
2018-12-01T06:42:51.207Z,61.80
2018-12-01T06:47:47.021Z,61.90
2018-12-01T06:50:19.786Z,61.90
2018-12-01T06:52:47.912Z,62.00
2018-12-01T06:55:15.590Z,62.00
2018-12-01T06:57:44.456Z,62.00
2018-12-01T07:02:41.885Z,62.10
2018-12-01T07:07:37.706Z,62.20
2018-12-01T07:10:08.108Z,62.10
2018-12-01T07:12:35.814Z,62.20
2018-12-01T07:15:03.646Z,62.10
2018-12-01T07:20:29.474Z,62.00
2018-12-01T07:25:24.586Z,61.90
2018-12-01T07:27:52.215Z,61.90
2018-12-01T07:30:19.847Z,62.00
2018-12-01T07:32:47.402Z,62.00
2018-12-01T07:35:14.936Z,61.90
2018-12-01T07:40:13.283Z,62.00
2018-12-01T07:42:43.296Z,62.00
2018-12-01T07:50:25.311Z,62.10
2018-12-01T07:52:56.785Z,62.20
2018-12-01T07:57:52.611Z,62.00
2018-12-01T08:00:21.952Z,62.10
2018-12-01T08:05:17.281Z,62.10
2018-12-01T08:10:14.328Z,62.00
2018-12-01T08:16:17.696Z,61.70
2018-12-01T08:18:45.352Z,61.60
2018-12-01T08:21:15.201Z,61.60
2018-12-01T08:23:46.133Z,61.60
2018-12-01T08:26:14.822Z,61.60
2018-12-01T08:34:09.543Z,61.60
2018-12-01T08:39:07.096Z,61.50
2018-12-01T08:41:34.962Z,61.50
2018-12-01T08:44:02.554Z,61.50
2018-12-01T08:46:30.335Z,61.40
2018-12-01T08:51:25.515Z,61.20
2018-12-01T08:53:53.197Z,61.30
2018-12-01T08:58:48.342Z,61.30
2018-12-01T09:01:15.938Z,61.40
2018-12-01T09:03:43.501Z,61.50
2018-12-01T09:06:11.132Z,61.50
2018-12-01T09:13:33.938Z,61.60
2018-12-01T09:16:01.677Z,61.70
2018-12-01T09:20:56.769Z,61.60
2018-12-01T09:23:24.435Z,61.50
2018-12-01T09:25:52.066Z,61.30
2018-12-01T09:28:20.177Z,61.00
2018-12-01T09:33:15.835Z,60.60
2018-12-01T09:38:11.647Z,60.50
2018-12-01T09:40:40.621Z,60.50
2018-12-01T09:43:08.324Z,60.30
2018-12-01T09:45:36.345Z,60.20
2018-12-01T09:48:04.032Z,60.00
2018-12-01T09:55:27.911Z,59.60
2018-12-01T09:57:55.849Z,59.60
2018-12-01T10:05:19.917Z,59.70
2018-12-01T10:07:47.545Z,59.80
2018-12-01T10:12:43.730Z,59.90
2018-12-01T10:15:13.500Z,59.70
2018-12-01T10:20:10.339Z,60.20
2018-12-01T10:22:38.045Z,59.90
2018-12-01T10:25:08.039Z,59.60
2018-12-01T10:27:35.798Z,59.20
2018-12-01T10:34:59.545Z,56.50
2018-12-01T10:37:27.149Z,56.20
2018-12-01T10:42:22.495Z,55.80
2018-12-01T10:44:50.195Z,55.80
2018-12-01T10:47:17.814Z,55.80
2018-12-01T10:49:45.514Z,55.50
2018-12-01T10:52:13.853Z,55.10
2018-12-01T10:54:40.846Z,54.70
2018-12-01T10:57:08.576Z,54.20
2018-12-01T11:02:09.210Z,54.20
2018-12-01T11:07:06.282Z,53.60
2018-12-01T11:09:34.150Z,53.50
2018-12-01T11:16:57.133Z,52.90
2018-12-01T11:21:52.325Z,52.30
2018-12-01T11:24:19.989Z,52.10
2018-12-01T11:26:47.608Z,52.00
2018-12-01T11:31:42.751Z,51.80
2018-12-01T11:34:10.482Z,51.90
2018-12-01T11:36:38.199Z,51.70
2018-12-01T11:41:35.067Z,51.10
2018-12-01T11:44:07.470Z,51.10
2018-12-01T11:46:35.213Z,50.30
2018-12-01T11:49:02.929Z,50.30
2018-12-01T11:51:30.784Z,50.70
2018-12-01T11:56:25.989Z,50.00
2018-12-01T11:58:53.639Z,50.20
2018-12-01T12:03:48.887Z,49.90
2018-12-01T12:13:41.075Z,48.90
2018-12-01T12:16:13.703Z,47.80
2018-12-01T12:18:41.779Z,47.20
2018-12-01T12:23:38.095Z,47.20
2018-12-01T12:26:05.815Z,47.00
2018-12-01T12:28:33.835Z,47.20
2018-12-01T12:31:01.466Z,47.40
2018-12-01T12:33:29.047Z,47.40
2018-12-01T12:35:56.606Z,47.10
2018-12-01T12:40:51.787Z,47.40
2018-12-01T12:43:19.386Z,47.30
2018-12-01T12:45:47.313Z,47.70
2018-12-01T12:48:14.922Z,47.40
2018-12-01T12:50:42.920Z,47.40
2018-12-01T12:53:10.531Z,47.70
2018-12-01T12:55:39.057Z,47.80
2018-12-01T12:58:06.783Z,47.80
2018-12-01T13:03:06.726Z,48.20
2018-12-01T13:05:36.220Z,48.60
2018-12-01T13:08:03.970Z,48.60
2018-12-01T13:13:00.164Z,48.90
2018-12-01T13:17:55.293Z,49.20
2018-12-01T13:20:23.761Z,49.40
2018-12-01T13:27:49.998Z,50.00
2018-12-01T13:30:19.237Z,50.00
2018-12-01T13:32:47.118Z,50.40
2018-12-01T13:35:15.125Z,50.40
2018-12-01T13:42:38.920Z,50.90
2018-12-01T13:45:08.910Z,50.90
2018-12-01T13:47:36.701Z,51.00
2018-12-01T13:50:07.984Z,50.80
2018-12-01T13:52:35.898Z,50.80
2018-12-01T13:59:58.825Z,50.90
2018-12-01T14:02:26.472Z,51.00
2018-12-01T14:04:54.313Z,51.00
2018-12-01T14:09:49.539Z,51.00
2018-12-01T14:12:17.189Z,50.90
2018-12-01T14:14:44.760Z,50.90
2018-12-01T14:17:12.279Z,50.80
2018-12-01T14:19:39.853Z,50.90
2018-12-01T14:22:13.077Z,51.10
2018-12-01T14:24:41.720Z,50.80
2018-12-01T14:27:09.390Z,50.80
2018-12-01T14:32:04.624Z,50.70
2018-12-01T14:39:27.448Z,50.90
2018-12-01T14:41:55.085Z,51.00
2018-12-01T14:44:22.842Z,51.10
2018-12-01T14:46:50.528Z,51.20
2018-12-01T14:49:18.148Z,51.10
2018-12-01T14:51:45.844Z,51.10
2018-12-01T14:54:13.512Z,51.00
2018-12-01T14:56:41.134Z,51.00
2018-12-01T14:59:08.869Z,51.10
2018-12-01T15:01:36.583Z,51.20
2018-12-01T15:04:04.351Z,51.30
2018-12-01T15:06:32.084Z,51.50
2018-12-01T15:11:27.419Z,51.50
2018-12-01T15:16:22.520Z,51.50
2018-12-01T15:18:50.162Z,51.50
2018-12-01T15:21:17.796Z,51.60
2018-12-01T15:23:45.362Z,51.70
2018-12-01T15:26:12.984Z,51.70
2018-12-01T15:28:40.568Z,51.80
2018-12-01T15:31:08.183Z,51.90
2018-12-01T15:33:35.791Z,52.00
2018-12-01T15:36:03.456Z,52.10
2018-12-01T15:38:31.038Z,52.10
2018-12-01T15:43:26.357Z,52.30
2018-12-01T15:45:54.035Z,52.40
2018-12-01T15:50:49.317Z,52.70
2018-12-01T15:53:16.937Z,52.90
2018-12-01T15:55:44.627Z,52.90
2018-12-01T15:58:12.192Z,53.10
2018-12-01T16:00:40.614Z,53.10
2018-12-01T16:03:08.265Z,53.20
2018-12-01T16:05:35.915Z,53.20
2018-12-01T16:08:03.742Z,53.30
2018-12-01T16:10:31.435Z,53.40
2018-12-01T16:13:16.784Z,53.60
2018-12-01T16:15:47.193Z,53.50
2018-12-01T16:18:14.913Z,53.50
2018-12-01T16:20:42.563Z,53.60
2018-12-01T16:28:05.799Z,54.10
2018-12-01T16:30:39.083Z,54.20
2018-12-01T16:33:11.330Z,54.20
2018-12-01T16:35:38.994Z,54.30
2018-12-01T16:40:39.829Z,54.40
2018-12-01T16:43:09.368Z,54.50
2018-12-01T16:45:37.004Z,54.60
2018-12-01T16:48:04.888Z,54.70
2018-12-01T16:50:33.082Z,54.90
2018-12-01T16:53:01.769Z,55.00
2018-12-01T16:55:30.242Z,55.00
2018-12-01T17:00:25.536Z,55.30
2018-12-01T17:02:56.516Z,55.40
2018-12-01T17:07:52.897Z,55.60
2018-12-01T17:10:21.126Z,55.70
2018-12-01T17:12:50.995Z,55.70
2018-12-01T17:15:19.545Z,55.70
2018-12-01T17:22:43.690Z,55.70
2018-12-01T17:27:41.675Z,55.70
2018-12-01T17:30:16.408Z,55.70
2018-12-01T17:40:14.620Z,55.90
2018-12-01T17:42:44.347Z,55.90
2018-12-01T17:45:12.138Z,55.90
2018-12-01T17:47:39.884Z,55.80
2018-12-01T17:50:13.314Z,55.90
2018-12-01T17:52:42.238Z,55.90
2018-12-01T17:57:39.043Z,55.90
2018-12-01T18:00:10.284Z,55.90
2018-12-01T18:02:37.897Z,55.90
2018-12-01T18:05:08.340Z,55.80
2018-12-01T18:07:36.064Z,55.90
2018-12-01T18:10:04.897Z,56.00
2018-12-01T18:12:32.540Z,56.10
2018-12-01T18:15:00.209Z,56.10
2018-12-01T18:17:27.803Z,56.20
2018-12-01T18:22:22.938Z,56.20
2018-12-01T18:24:50.497Z,56.10
2018-12-01T18:29:45.700Z,56.00
2018-12-01T18:32:13.282Z,56.00
2018-12-01T18:34:40.939Z,56.00
2018-12-01T18:39:36.191Z,56.00
2018-12-01T18:42:03.798Z,56.00
2018-12-01T18:44:31.563Z,56.00
2018-12-01T18:46:59.155Z,56.10
2018-12-01T18:49:26.849Z,56.00
2018-12-01T18:51:54.503Z,56.00
2018-12-01T18:54:22.039Z,55.90
2018-12-01T19:01:46.491Z,55.80
2018-12-01T19:09:10.075Z,55.80
2018-12-01T19:11:37.840Z,55.70
2018-12-01T19:14:06.270Z,55.70
2018-12-01T19:19:01.631Z,55.60
2018-12-01T19:21:29.257Z,55.60
2018-12-01T19:31:19.520Z,55.60
2018-12-01T19:33:47.179Z,55.50
2018-12-01T19:36:14.824Z,55.50
2018-12-01T19:38:42.487Z,55.60
2018-12-01T19:41:10.095Z,55.60
2018-12-01T19:43:37.807Z,55.60
2018-12-01T19:48:33.397Z,55.80
2018-12-01T19:55:56.154Z,55.80
2018-12-01T19:58:28.040Z,55.80
2018-12-01T20:00:56.714Z,55.90
2018-12-01T20:03:26.340Z,55.80
2018-12-01T20:05:54.036Z,55.90
2018-12-01T20:11:07.830Z,56.20
2018-12-01T20:13:39.861Z,56.40
2018-12-01T20:16:15.360Z,56.60
2018-12-01T20:18:43.029Z,56.60
2018-12-01T20:23:39.148Z,56.50
2018-12-01T20:26:06.815Z,56.50
2018-12-01T20:28:34.464Z,56.50
2018-12-01T20:33:29.660Z,56.40
2018-12-01T20:36:02.549Z,56.30
2018-12-01T20:38:37.556Z,56.30
2018-12-01T20:41:05.482Z,56.40
2018-12-01T20:43:33.174Z,56.30
2018-12-01T20:46:00.770Z,56.30
2018-12-01T20:48:28.516Z,56.30
2018-12-01T20:50:56.088Z,56.30
2018-12-01T21:03:15.229Z,56.60
2018-12-01T21:08:10.406Z,56.70
2018-12-01T21:15:34.568Z,56.80
2018-12-01T21:18:02.255Z,56.70
2018-12-01T21:20:29.911Z,56.80
2018-12-01T21:22:57.593Z,56.90
2018-12-01T21:25:26.306Z,56.90
2018-12-01T21:27:55.165Z,56.90
2018-12-01T21:30:24.789Z,56.90
2018-12-01T21:32:55.052Z,56.90
2018-12-01T21:35:22.744Z,56.80
2018-12-01T21:37:50.479Z,56.80
2018-12-01T21:45:16.331Z,56.80
2018-12-01T21:47:42.734Z,56.90
2018-12-01T21:50:13.437Z,56.80
2018-12-01T21:52:41.589Z,56.80
2018-12-01T21:55:10.296Z,56.90
2018-12-01T21:57:38.131Z,56.90
2018-12-01T22:00:37.472Z,57.00
2018-12-01T22:03:08.973Z,57.00
2018-12-01T22:06:11.235Z,57.10
2018-12-01T22:08:38.846Z,57.10
2018-12-01T22:11:07.074Z,57.10
2018-12-01T22:16:02.406Z,57.10
2018-12-01T22:18:30.778Z,57.10
2018-12-01T22:20:59.298Z,57.10
2018-12-01T22:23:27.046Z,57.10
2018-12-01T22:25:54.878Z,57.10
2018-12-01T22:28:24.774Z,57.20
2018-12-01T22:30:55.264Z,57.20
2018-12-01T22:33:27.099Z,57.20
2018-12-01T22:35:55.290Z,57.10
2018-12-01T22:38:24.250Z,57.10
2018-12-01T22:43:19.888Z,57.00
2018-12-01T22:48:20.812Z,56.90
2018-12-01T22:50:50.352Z,56.80
2018-12-01T22:53:18.088Z,56.80
2018-12-01T22:55:46.112Z,56.80
2018-12-01T23:00:51.329Z,56.90
2018-12-01T23:03:19.013Z,56.90
2018-12-01T23:05:46.654Z,56.80
2018-12-01T23:08:15.616Z,56.80
2018-12-01T23:15:38.724Z,56.60
2018-12-01T23:18:09.652Z,56.60
2018-12-01T23:20:38.195Z,56.40
2018-12-01T23:23:06.390Z,56.40
2018-12-01T23:25:34.103Z,56.50
2018-12-01T23:28:01.838Z,56.40
2018-12-01T23:30:30.026Z,56.40
2018-12-01T23:32:58.889Z,56.40
2018-12-01T23:35:26.588Z,56.40
2018-12-01T23:37:54.138Z,56.30
2018-12-01T23:40:21.909Z,56.30
2018-12-01T23:42:49.609Z,56.20
2018-12-01T23:45:18.102Z,56.10
2018-12-01T23:47:46.222Z,56.10
2018-12-01T23:50:22.465Z,56.10
2018-12-01T23:55:21.997Z,55.90
2018-12-01T23:57:49.597Z,55.90
